Terminal Aerodrome Forecast
Issued by NWS

Home | Current Version | Previous Version | Text Only | Print | Product List | Glossary On
Versions: 1 2 3 4 5 6 7 8 9 10 11 12 13 14 15 16 17
081
FTUS46 KLOX 211720
TAFOXR
TAF
KOXR 211720Z 2118/2218 VRB03KT P6SM SKC
     FM211900 26010KT P6SM SKC
     FM220400 VRB03KT P6SM SCT250
     FM221000 VRB03KT 6SM BR VCFG SCT003=

USA.gov is the U.S. government's official web portal to all federal, state and local government web resources and services.